sensor_id;sensor_type;location;lat;lon;timestamp;noise_LAeq;noise_LA_min;noise_LA_max;noise_LA01;noise_LA95
72858;Laerm;62742;52.136;4.500;2022-09-30T00:01:43;51.86;44.99;60.69;;
72858;Laerm;62742;52.136;4.500;2022-09-30T00:04:20;52.05;44.53;60.76;;
72858;Laerm;62742;52.136;4.500;2022-09-30T00:06:48;52.25;44.48;61.34;;
72858;Laerm;62742;52.136;4.500;2022-09-30T00:09:15;52.15;45.72;60.77;;
72858;Laerm;62742;52.136;4.500;2022-09-30T00:11:43;52.56;47.08;61.33;;
72858;Laerm;62742;52.136;4.500;2022-09-30T00:14:20;52.74;47.57;60.92;;
72858;Laerm;62742;52.136;4.500;2022-09-30T00:16:47;52.41;45.45;61.26;;
72858;Laerm;62742;52.136;4.500;2022-09-30T00:19:14;52.10;44.11;61.25;;
72858;Laerm;62742;52.136;4.500;2022-09-30T00:21:41;52.23;44.30;61.80;;
72858;Laerm;62742;52.136;4.500;2022-09-30T00:24:07;52.40;44.51;61.46;;
72858;Laerm;62742;52.136;4.500;2022-09-30T00:26:34;52.31;43.84;61.62;;
72858;Laerm;62742;52.136;4.500;2022-09-30T00:29:03;52.01;45.30;61.88;;
72858;Laerm;62742;52.136;4.500;2022-09-30T00:31:33;51.49;43.96;61.69;;
72858;Laerm;62742;52.136;4.500;2022-09-30T00:34:00;51.21;44.85;61.67;;
72858;Laerm;62742;52.136;4.500;2022-09-30T00:36:43;51.41;43.88;61.88;;
72858;Laerm;62742;52.136;4.500;2022-09-30T00:41:47;51.54;45.22;61.44;;
72858;Laerm;62742;52.136;4.500;2022-09-30T00:44:54;51.59;46.16;62.06;;
72858;Laerm;62742;52.136;4.500;2022-09-30T00:55:51;51.44;44.42;64.38;;
72858;Laerm;62742;52.136;4.500;2022-09-30T00:58:34;51.85;45.22;61.53;;
72858;Laerm;62742;52.136;4.500;2022-09-30T01:01:02;51.95;44.61;62.47;;
72858;Laerm;62742;52.136;4.500;2022-09-30T01:03:58;52.56;41.97;62.11;;
72858;Laerm;62742;52.136;4.500;2022-09-30T01:06:26;53.36;46.68;62.87;;
72858;Laerm;62742;52.136;4.500;2022-09-30T01:08:53;49.86;40.39;63.70;;
72858;Laerm;62742;52.136;4.500;2022-09-30T01:11:20;45.23;41.85;54.21;;
72858;Laerm;62742;52.136;4.500;2022-09-30T01:13:54;44.74;41.34;53.42;;
72858;Laerm;62742;52.136;4.500;2022-09-30T01:24:57;51.25;43.54;62.51;;
72858;Laerm;62742;52.136;4.500;2022-09-30T01:33:34;49.70;42.45;61.92;;
72858;Laerm;62742;52.136;4.500;2022-09-30T01:42:31;52.71;44.03;63.81;;
72858;Laerm;62742;52.136;4.500;2022-09-30T01:45:29;52.60;43.55;61.78;;
72858;Laerm;62742;52.136;4.500;2022-09-30T01:48:17;51.82;43.39;61.68;;
72858;Laerm;62742;52.136;4.500;2022-09-30T01:51:00;52.76;44.04;62.88;;
72858;Laerm;62742;52.136;4.500;2022-09-30T01:53:42;52.03;44.03;63.17;;
72858;Laerm;62742;52.136;4.500;2022-09-30T01:56:33;52.98;42.66;62.01;;
72858;Laerm;62742;52.136;4.500;2022-09-30T01:59:20;52.42;43.76;60.61;;
72858;Laerm;62742;52.136;4.500;2022-09-30T02:02:03;51.85;43.64;62.54;;
72858;Laerm;62742;52.136;4.500;2022-09-30T02:04:42;52.73;43.50;61.98;;
72858;Laerm;62742;52.136;4.500;2022-09-30T02:07:16;52.99;43.70;62.40;;
72858;Laerm;62742;52.136;4.500;2022-09-30T02:09:58;52.54;43.41;60.94;;
72858;Laerm;62742;52.136;4.500;2022-09-30T02:12:33;52.72;43.78;61.35;;
72858;Laerm;62742;52.136;4.500;2022-09-30T02:15:08;52.22;44.36;60.01;;
72858;Laerm;62742;52.136;4.500;2022-09-30T02:17:44;52.58;43.39;61.62;;
72858;Laerm;62742;52.136;4.500;2022-09-30T02:20:19;53.50;45.35;60.37;;
72858;Laerm;62742;52.136;4.500;2022-09-30T02:22:54;53.23;42.96;60.92;;
72858;Laerm;62742;52.136;4.500;2022-09-30T02:25:29;51.26;43.11;59.69;;
72858;Laerm;62742;52.136;4.500;2022-09-30T02:28:05;52.07;43.46;60.63;;
72858;Laerm;62742;52.136;4.500;2022-09-30T02:30:37;53.21;44.24;60.05;;
72858;Laerm;62742;52.136;4.500;2022-09-30T02:33:15;53.50;43.64;60.53;;
72858;Laerm;62742;52.136;4.500;2022-09-30T02:35:51;53.19;42.94;61.75;;
72858;Laerm;62742;52.136;4.500;2022-09-30T02:38:31;52.89;43.18;62.16;;
72858;Laerm;62742;52.136;4.500;2022-09-30T02:41:11;52.09;43.53;60.81;;
72858;Laerm;62742;52.136;4.500;2022-09-30T02:43:40;52.37;47.24;60.40;;
72858;Laerm;62742;52.136;4.500;2022-09-30T02:51:54;52.43;46.08;61.59;;
72858;Laerm;62742;52.136;4.500;2022-09-30T03:00:18;52.46;43.76;63.19;;
72858;Laerm;62742;52.136;4.500;2022-09-30T03:02:45;52.03;42.38;61.64;;
72858;Laerm;62742;52.136;4.500;2022-09-30T03:05:11;51.71;42.62;63.12;;
72858;Laerm;62742;52.136;4.500;2022-09-30T03:07:39;50.62;43.09;63.08;;
72858;Laerm;62742;52.136;4.500;2022-09-30T03:10:17;51.33;43.38;61.85;;
72858;Laerm;62742;52.136;4.500;2022-09-30T03:35:45;50.76;42.98;60.73;;
72858;Laerm;62742;52.136;4.500;2022-09-30T03:38:51;51.32;42.11;62.78;;
72858;Laerm;62742;52.136;4.500;2022-09-30T03:41:42;51.33;43.11;63.45;;
72858;Laerm;62742;52.136;4.500;2022-09-30T03:44:15;50.36;42.42;60.48;;
72858;Laerm;62742;52.136;4.500;2022-09-30T03:46:51;49.27;42.59;59.90;;
72858;Laerm;62742;52.136;4.500;2022-09-30T03:49:28;49.07;42.14;60.41;;
72858;Laerm;62742;52.136;4.500;2022-09-30T03:51:58;50.19;43.05;61.70;;
72858;Laerm;62742;52.136;4.500;2022-09-30T03:54:25;49.50;42.26;62.46;;
72858;Laerm;62742;52.136;4.500;2022-09-30T03:56:52;50.42;43.46;61.57;;
72858;Laerm;62742;52.136;4.500;2022-09-30T03:59:26;50.73;42.77;60.46;;
72858;Laerm;62742;52.136;4.500;2022-09-30T04:01:56;50.99;43.00;60.23;;
72858;Laerm;62742;52.136;4.500;2022-09-30T04:04:22;51.18;43.22;61.14;;
72858;Laerm;62742;52.136;4.500;2022-09-30T04:06:49;50.75;43.46;62.08;;
72858;Laerm;62742;52.136;4.500;2022-09-30T04:09:16;49.43;42.98;60.70;;
72858;Laerm;62742;52.136;4.500;2022-09-30T04:11:42;50.08;42.72;60.60;;
72858;Laerm;62742;52.136;4.500;2022-09-30T04:14:09;50.63;41.68;60.77;;
72858;Laerm;62742;52.136;4.500;2022-09-30T04:16:35;50.53;43.87;61.94;;
72858;Laerm;62742;52.136;4.500;2022-09-30T04:19:02;48.91;42.20;60.09;;
72858;Laerm;62742;52.136;4.500;2022-09-30T04:21:28;48.80;43.29;60.09;;
72858;Laerm;62742;52.136;4.500;2022-09-30T04:23:56;49.49;41.26;59.32;;
72858;Laerm;62742;52.136;4.500;2022-09-30T04:26:22;47.05;42.22;58.72;;
72858;Laerm;62742;52.136;4.500;2022-09-30T04:28:49;48.45;43.07;57.62;;
72858;Laerm;62742;52.136;4.500;2022-09-30T04:31:16;47.38;41.70;57.17;;
72858;Laerm;62742;52.136;4.500;2022-09-30T04:33:44;47.93;41.54;58.98;;
72858;Laerm;62742;52.136;4.500;2022-09-30T04:36:11;47.97;41.06;56.48;;
72858;Laerm;62742;52.136;4.500;2022-09-30T04:38:37;48.07;41.87;55.66;;
72858;Laerm;62742;52.136;4.500;2022-09-30T04:41:06;48.48;41.74;56.75;;
72858;Laerm;62742;52.136;4.500;2022-09-30T04:43:33;48.56;41.97;57.55;;
72858;Laerm;62742;52.136;4.500;2022-09-30T04:46:00;47.51;42.68;57.78;;
72858;Laerm;62742;52.136;4.500;2022-09-30T04:48:27;46.92;41.58;57.60;;
72858;Laerm;62742;52.136;4.500;2022-09-30T04:50:57;47.71;42.95;57.76;;
72858;Laerm;62742;52.136;4.500;2022-09-30T04:53:27;46.85;42.41;58.51;;
72858;Laerm;62742;52.136;4.500;2022-09-30T04:55:59;47.02;42.40;57.69;;
72858;Laerm;62742;52.136;4.500;2022-09-30T04:58:27;46.92;40.91;57.43;;
72858;Laerm;62742;52.136;4.500;2022-09-30T05:01:02;47.80;42.89;60.42;;
72858;Laerm;62742;52.136;4.500;2022-09-30T05:03:30;52.71;43.09;57.61;;
72858;Laerm;62742;52.136;4.500;2022-09-30T05:05:56;50.63;43.14;55.01;;
72858;Laerm;62742;52.136;4.500;2022-09-30T05:08:23;48.84;43.36;53.52;;
72858;Laerm;62742;52.136;4.500;2022-09-30T05:11:01;48.12;43.32;52.84;;
72858;Laerm;62742;52.136;4.500;2022-09-30T05:13:34;48.35;44.14;53.46;;
72858;Laerm;62742;52.136;4.500;2022-09-30T05:16:02;48.07;43.16;53.15;;
72858;Laerm;62742;52.136;4.500;2022-09-30T05:18:29;47.61;42.26;52.86;;
72858;Laerm;62742;52.136;4.500;2022-09-30T05:20:57;46.46;42.68;52.52;;
72858;Laerm;62742;52.136;4.500;2022-09-30T05:23:26;46.54;42.79;53.56;;
72858;Laerm;62742;52.136;4.500;2022-09-30T05:25:53;46.01;41.87;52.65;;
72858;Laerm;62742;52.136;4.500;2022-09-30T05:28:20;46.34;42.51;54.29;;
72858;Laerm;62742;52.136;4.500;2022-09-30T05:30:47;46.10;41.94;54.07;;
72858;Laerm;62742;52.136;4.500;2022-09-30T05:33:15;45.71;42.16;56.04;;
72858;Laerm;62742;52.136;4.500;2022-09-30T05:35:42;45.31;41.85;51.71;;
72858;Laerm;62742;52.136;4.500;2022-09-30T05:38:09;45.53;41.50;52.32;;
72858;Laerm;62742;52.136;4.500;2022-09-30T05:40:37;45.76;42.20;52.79;;
72858;Laerm;62742;52.136;4.500;2022-09-30T05:43:05;45.37;40.68;50.11;;
72858;Laerm;62742;52.136;4.500;2022-09-30T05:45:33;45.89;41.79;52.23;;
72858;Laerm;62742;52.136;4.500;2022-09-30T05:48:01;45.72;42.23;51.22;;
72858;Laerm;62742;52.136;4.500;2022-09-30T05:50:28;46.27;42.50;52.18;;
72858;Laerm;62742;52.136;4.500;2022-09-30T05:52:54;46.15;42.01;50.69;;
72858;Laerm;62742;52.136;4.500;2022-09-30T05:55:23;46.29;42.01;51.14;;
72858;Laerm;62742;52.136;4.500;2022-09-30T05:57:50;46.44;42.39;51.45;;
72858;Laerm;62742;52.136;4.500;2022-09-30T06:00:22;46.43;42.60;50.81;;
72858;Laerm;62742;52.136;4.500;2022-09-30T06:02:52;46.33;41.70;52.05;;
72858;Laerm;62742;52.136;4.500;2022-09-30T06:05:18;45.52;41.88;50.31;;
72858;Laerm;62742;52.136;4.500;2022-09-30T06:07:45;46.24;43.06;51.32;;
72858;Laerm;62742;52.136;4.500;2022-09-30T06:10:11;46.26;42.37;51.20;;
72858;Laerm;62742;52.136;4.500;2022-09-30T06:12:38;45.48;41.93;56.20;;
72858;Laerm;62742;52.136;4.500;2022-09-30T06:15:06;45.79;41.25;51.38;;
72858;Laerm;62742;52.136;4.500;2022-09-30T06:17:33;45.96;42.01;51.25;;
72858;Laerm;62742;52.136;4.500;2022-09-30T06:20:00;46.30;42.45;50.38;;
72858;Laerm;62742;52.136;4.500;2022-09-30T06:22:27;46.07;41.96;51.12;;
72858;Laerm;62742;52.136;4.500;2022-09-30T06:24:53;48.70;41.05;55.84;;
72858;Laerm;62742;52.136;4.500;2022-09-30T06:27:20;47.47;41.35;55.85;;
72858;Laerm;62742;52.136;4.500;2022-09-30T06:29:47;46.73;42.00;52.59;;
72858;Laerm;62742;52.136;4.500;2022-09-30T06:32:14;49.27;43.85;55.12;;
72858;Laerm;62742;52.136;4.500;2022-09-30T06:34:41;47.78;42.39;52.19;;
72858;Laerm;62742;52.136;4.500;2022-09-30T06:37:07;49.40;44.30;55.41;;
72858;Laerm;62742;52.136;4.500;2022-09-30T06:39:34;50.59;44.46;57.72;;
72858;Laerm;62742;52.136;4.500;2022-09-30T06:42:00;50.49;44.79;58.52;;
72858;Laerm;62742;52.136;4.500;2022-09-30T06:44:26;50.85;43.73;58.54;;
72858;Laerm;62742;52.136;4.500;2022-09-30T06:46:53;52.02;46.13;59.08;;
72858;Laerm;62742;52.136;4.500;2022-09-30T06:49:20;50.81;44.90;57.55;;
72858;Laerm;62742;52.136;4.500;2022-09-30T06:51:47;51.07;43.80;57.45;;
72858;Laerm;62742;52.136;4.500;2022-09-30T06:54:14;52.72;45.70;59.25;;
72858;Laerm;62742;52.136;4.500;2022-09-30T06:56:41;53.27;46.07;59.47;;
72858;Laerm;62742;52.136;4.500;2022-09-30T06:59:10;50.70;44.73;58.65;;
72858;Laerm;62742;52.136;4.500;2022-09-30T07:01:37;48.75;43.83;55.88;;
72858;Laerm;62742;52.136;4.500;2022-09-30T07:04:04;49.24;44.32;62.08;;
72858;Laerm;62742;52.136;4.500;2022-09-30T07:06:34;49.98;44.59;57.31;;
72858;Laerm;62742;52.136;4.500;2022-09-30T07:09:01;49.73;42.44;62.88;;
72858;Laerm;62742;52.136;4.500;2022-09-30T07:11:27;48.25;43.60;56.46;;
72858;Laerm;62742;52.136;4.500;2022-09-30T07:13:54;48.09;43.47;58.56;;
72858;Laerm;62742;52.136;4.500;2022-09-30T07:16:20;48.08;43.11;55.00;;
72858;Laerm;62742;52.136;4.500;2022-09-30T07:18:47;48.74;44.84;55.69;;
72858;Laerm;62742;52.136;4.500;2022-09-30T07:21:15;49.14;44.45;56.41;;
72858;Laerm;62742;52.136;4.500;2022-09-30T07:23:45;50.34;43.77;58.24;;
72858;Laerm;62742;52.136;4.500;2022-09-30T07:26:18;51.01;45.14;59.77;;
72858;Laerm;62742;52.136;4.500;2022-09-30T07:28:46;50.80;45.59;58.38;;
72858;Laerm;62742;52.136;4.500;2022-09-30T07:31:21;51.49;45.69;57.80;;
72858;Laerm;62742;52.136;4.500;2022-09-30T07:33:48;51.35;45.72;57.71;;
72858;Laerm;62742;52.136;4.500;2022-09-30T07:36:20;50.49;45.03;57.57;;
72858;Laerm;62742;52.136;4.500;2022-09-30T07:38:52;50.94;44.91;58.40;;
72858;Laerm;62742;52.136;4.500;2022-09-30T07:41:26;49.70;44.89;57.58;;
72858;Laerm;62742;52.136;4.500;2022-09-30T07:43:55;48.01;43.35;58.30;;
72858;Laerm;62742;52.136;4.500;2022-09-30T07:46:30;47.59;43.33;53.48;;
72858;Laerm;62742;52.136;4.500;2022-09-30T07:48:59;49.10;41.98;54.24;;
72858;Laerm;62742;52.136;4.500;2022-09-30T07:51:31;50.38;42.31;54.58;;
72858;Laerm;62742;52.136;4.500;2022-09-30T07:54:06;47.36;40.34;54.17;;
72858;Laerm;62742;52.136;4.500;2022-09-30T07:56:34;46.36;41.46;54.87;;
72858;Laerm;62742;52.136;4.500;2022-09-30T07:59:05;47.60;41.96;57.97;;
72858;Laerm;62742;52.136;4.500;2022-09-30T08:01:32;47.47;41.91;54.53;;
72858;Laerm;62742;52.136;4.500;2022-09-30T08:04:04;46.81;41.94;53.28;;
72858;Laerm;62742;52.136;4.500;2022-09-30T08:06:36;46.05;41.94;53.18;;
72858;Laerm;62742;52.136;4.500;2022-09-30T08:09:03;46.08;41.83;53.04;;
72858;Laerm;62742;52.136;4.500;2022-09-30T08:11:33;46.62;42.30;57.35;;
72858;Laerm;62742;52.136;4.500;2022-09-30T08:14:01;44.85;41.37;51.72;;
72858;Laerm;62742;52.136;4.500;2022-09-30T08:16:28;44.48;40.31;50.49;;
72858;Laerm;62742;52.136;4.500;2022-09-30T08:19:00;44.81;41.16;52.83;;
72858;Laerm;62742;52.136;4.500;2022-09-30T08:21:28;45.26;41.89;51.26;;
72858;Laerm;62742;52.136;4.500;2022-09-30T08:23:56;45.81;42.25;51.65;;
72858;Laerm;62742;52.136;4.500;2022-09-30T08:26:23;45.52;41.60;57.09;;
72858;Laerm;62742;52.136;4.500;2022-09-30T08:28:50;45.27;42.00;50.45;;
72858;Laerm;62742;52.136;4.500;2022-09-30T08:31:20;46.55;41.78;54.87;;
72858;Laerm;62742;52.136;4.500;2022-09-30T08:33:48;46.47;42.41;54.70;;
72858;Laerm;62742;52.136;4.500;2022-09-30T08:36:19;46.51;43.23;56.79;;
72858;Laerm;62742;52.136;4.500;2022-09-30T08:38:46;46.83;43.16;56.45;;
72858;Laerm;62742;52.136;4.500;2022-09-30T08:44:30;47.07;43.07;55.47;;
72858;Laerm;62742;52.136;4.500;2022-09-30T08:53:42;45.57;41.75;53.74;;
72858;Laerm;62742;52.136;4.500;2022-09-30T08:56:26;45.66;42.01;54.35;;
72858;Laerm;62742;52.136;4.500;2022-09-30T09:04:50;46.53;42.91;54.07;;
72858;Laerm;62742;52.136;4.500;2022-09-30T09:08:03;46.58;42.70;54.53;;
72858;Laerm;62742;52.136;4.500;2022-09-30T09:10:50;47.25;43.68;53.46;;
72858;Laerm;62742;52.136;4.500;2022-09-30T09:13:52;46.91;42.91;54.17;;
72858;Laerm;62742;52.136;4.500;2022-09-30T09:16:54;46.27;42.84;55.34;;
72858;Laerm;62742;52.136;4.500;2022-09-30T09:19:36;46.16;42.55;53.38;;
72858;Laerm;62742;52.136;4.500;2022-09-30T09:22:09;46.71;43.11;56.54;;
72858;Laerm;62742;52.136;4.500;2022-09-30T09:24:37;47.20;44.24;52.96;;
72858;Laerm;62742;52.136;4.500;2022-09-30T09:28:01;47.18;43.43;53.53;;
72858;Laerm;62742;52.136;4.500;2022-09-30T09:30:35;47.77;43.86;54.47;;
72858;Laerm;62742;52.136;4.500;2022-09-30T09:33:20;48.64;45.43;54.20;;
72858;Laerm;62742;52.136;4.500;2022-09-30T09:38:56;50.05;46.54;54.41;;
72858;Laerm;62742;52.136;4.500;2022-09-30T09:44:43;49.63;45.43;53.41;;
72858;Laerm;62742;52.136;4.500;2022-09-30T09:47:15;48.95;45.90;52.93;;
72858;Laerm;62742;52.136;4.500;2022-09-30T09:49:44;49.37;45.76;52.68;;
72858;Laerm;62742;52.136;4.500;2022-09-30T09:57:14;50.33;47.27;53.18;;
72858;Laerm;62742;52.136;4.500;2022-09-30T10:00:00;50.56;46.97;53.70;;
72858;Laerm;62742;52.136;4.500;2022-09-30T10:05:34;50.61;47.09;53.59;;
72858;Laerm;62742;52.136;4.500;2022-09-30T10:08:23;50.47;46.48;53.45;;
72858;Laerm;62742;52.136;4.500;2022-09-30T10:10:53;49.93;46.90;53.21;;
72858;Laerm;62742;52.136;4.500;2022-09-30T10:16:04;50.35;45.72;53.65;;
72858;Laerm;62742;52.136;4.500;2022-09-30T10:18:35;51.03;47.75;54.15;;
72858;Laerm;62742;52.136;4.500;2022-09-30T10:21:22;51.11;47.92;54.23;;
72858;Laerm;62742;52.136;4.500;2022-09-30T10:23:49;51.18;48.32;54.57;;
72858;Laerm;62742;52.136;4.500;2022-09-30T10:26:23;51.02;48.09;54.01;;
72858;Laerm;62742;52.136;4.500;2022-09-30T10:28:54;50.78;47.56;53.54;;
72858;Laerm;62742;52.136;4.500;2022-09-30T10:31:43;51.17;47.95;53.68;;
72858;Laerm;62742;52.136;4.500;2022-09-30T10:34:27;51.64;48.67;54.53;;
72858;Laerm;62742;52.136;4.500;2022-09-30T10:36:58;51.78;48.35;54.53;;
72858;Laerm;62742;52.136;4.500;2022-09-30T10:39:34;52.68;49.72;54.97;;
72858;Laerm;62742;52.136;4.500;2022-09-30T10:42:06;52.59;50.22;54.68;;
72858;Laerm;62742;52.136;4.500;2022-09-30T10:45:06;52.32;49.14;54.71;;
72858;Laerm;62742;52.136;4.500;2022-09-30T10:47:44;51.69;48.83;54.56;;
72858;Laerm;62742;52.136;4.500;2022-09-30T10:50:14;52.33;49.35;54.59;;
72858;Laerm;62742;52.136;4.500;2022-09-30T10:53:02;52.45;50.21;54.51;;
72858;Laerm;62742;52.136;4.500;2022-09-30T10:55:40;52.51;49.75;54.89;;
72858;Laerm;62742;52.136;4.500;2022-09-30T11:01:27;52.83;50.27;55.56;;
72858;Laerm;62742;52.136;4.500;2022-09-30T11:06:40;52.47;49.40;55.43;;
72858;Laerm;62742;52.136;4.500;2022-09-30T11:09:25;51.68;48.86;54.81;;
72858;Laerm;62742;52.136;4.500;2022-09-30T11:12:13;51.90;48.67;54.99;;
72858;Laerm;62742;52.136;4.500;2022-09-30T11:14:59;52.17;49.49;54.96;;
72858;Laerm;62742;52.136;4.500;2022-09-30T11:17:42;52.41;49.27;55.46;;
72858;Laerm;62742;52.136;4.500;2022-09-30T11:20:24;52.21;49.62;54.95;;
72858;Laerm;62742;52.136;4.500;2022-09-30T11:44:00;52.60;50.38;54.85;;
72858;Laerm;62742;52.136;4.500;2022-09-30T11:58:39;51.85;49.24;54.00;;
72858;Laerm;62742;52.136;4.500;2022-09-30T12:03:50;51.92;49.64;56.32;;
72858;Laerm;62742;52.136;4.500;2022-09-30T12:06:36;50.57;47.77;56.61;;
72858;Laerm;62742;52.136;4.500;2022-09-30T12:09:23;50.30;46.85;57.14;;
72858;Laerm;62742;52.136;4.500;2022-09-30T12:12:07;50.22;46.59;54.23;;
72858;Laerm;62742;52.136;4.500;2022-09-30T12:15:00;50.50;46.86;58.25;;
72858;Laerm;62742;52.136;4.500;2022-09-30T12:17:40;50.09;47.35;52.85;;
72858;Laerm;62742;52.136;4.500;2022-09-30T12:20:25;50.10;46.87;53.18;;
72858;Laerm;62742;52.136;4.500;2022-09-30T12:23:15;49.83;47.00;52.57;;
72858;Laerm;62742;52.136;4.500;2022-09-30T12:25:59;50.30;47.26;53.10;;
72858;Laerm;62742;52.136;4.500;2022-09-30T12:31:46;50.67;47.47;54.07;;
72858;Laerm;62742;52.136;4.500;2022-09-30T12:48:42;50.67;47.42;54.51;;
72858;Laerm;62742;52.136;4.500;2022-09-30T12:51:28;49.92;46.69;55.50;;
72858;Laerm;62742;52.136;4.500;2022-09-30T12:54:05;49.81;46.52;54.42;;
72858;Laerm;62742;52.136;4.500;2022-09-30T12:56:43;50.19;47.08;53.70;;
72858;Laerm;62742;52.136;4.500;2022-09-30T12:59:12;50.98;47.51;54.37;;
72858;Laerm;62742;52.136;4.500;2022-09-30T13:01:41;50.51;46.80;54.44;;
72858;Laerm;62742;52.136;4.500;2022-09-30T13:04:38;49.93;46.01;53.86;;
72858;Laerm;62742;52.136;4.500;2022-09-30T13:07:14;51.41;46.18;54.79;;
72858;Laerm;62742;52.136;4.500;2022-09-30T13:12:45;50.50;47.15;53.83;;
72858;Laerm;62742;52.136;4.500;2022-09-30T13:15:54;50.16;46.63;52.96;;
72858;Laerm;62742;52.136;4.500;2022-09-30T13:23:48;51.25;46.97;54.70;;
72858;Laerm;62742;52.136;4.500;2022-09-30T13:26:36;51.47;48.13;54.47;;
72858;Laerm;62742;52.136;4.500;2022-09-30T13:34:21;52.97;49.58;55.49;;
72858;Laerm;62742;52.136;4.500;2022-09-30T13:39:30;52.89;49.04;55.82;;
72858;Laerm;62742;52.136;4.500;2022-09-30T13:45:01;53.68;50.40;56.34;;
72858;Laerm;62742;52.136;4.500;2022-09-30T13:47:42;52.65;49.37;56.27;;
72858;Laerm;62742;52.136;4.500;2022-09-30T13:50:18;53.05;49.54;56.16;;
72858;Laerm;62742;52.136;4.500;2022-09-30T13:52:50;52.30;49.02;55.30;;
72858;Laerm;62742;52.136;4.500;2022-09-30T14:08:21;54.95;51.39;58.04;;
72858;Laerm;62742;52.136;4.500;2022-09-30T14:10:59;54.37;51.10;57.72;;
72858;Laerm;62742;52.136;4.500;2022-09-30T14:14:30;52.98;49.79;56.97;;
72858;Laerm;62742;52.136;4.500;2022-09-30T14:22:48;52.62;49.63;55.70;;
72858;Laerm;62742;52.136;4.500;2022-09-30T14:25:18;53.01;49.64;56.51;;
72858;Laerm;62742;52.136;4.500;2022-09-30T14:28:00;52.88;49.16;56.11;;
72858;Laerm;62742;52.136;4.500;2022-09-30T14:30:39;51.66;48.41;55.80;;
72858;Laerm;62742;52.136;4.500;2022-09-30T14:33:23;52.12;48.45;55.43;;
72858;Laerm;62742;52.136;4.500;2022-09-30T14:35:53;52.30;49.21;55.67;;
72858;Laerm;62742;52.136;4.500;2022-09-30T14:38:25;52.16;49.29;56.59;;
72858;Laerm;62742;52.136;4.500;2022-09-30T14:40:58;52.99;49.18;57.14;;
72858;Laerm;62742;52.136;4.500;2022-09-30T14:43:35;52.66;48.63;57.46;;
72858;Laerm;62742;52.136;4.500;2022-09-30T14:46:34;52.09;48.53;56.19;;
72858;Laerm;62742;52.136;4.500;2022-09-30T14:49:12;52.97;49.37;56.33;;
72858;Laerm;62742;52.136;4.500;2022-09-30T14:51:44;52.52;48.60;56.12;;
72858;Laerm;62742;52.136;4.500;2022-09-30T14:54:23;52.88;48.69;57.24;;
72858;Laerm;62742;52.136;4.500;2022-09-30T14:56:52;53.33;50.31;56.96;;
72858;Laerm;62742;52.136;4.500;2022-09-30T14:59:28;53.00;50.22;56.54;;
72858;Laerm;62742;52.136;4.500;2022-09-30T15:02:03;52.40;49.33;55.86;;
72858;Laerm;62742;52.136;4.500;2022-09-30T15:04:45;50.57;47.44;55.17;;
72858;Laerm;62742;52.136;4.500;2022-09-30T15:07:13;51.36;47.56;56.09;;
72858;Laerm;62742;52.136;4.500;2022-09-30T15:09:45;51.72;48.37;55.65;;
72858;Laerm;62742;52.136;4.500;2022-09-30T15:12:21;51.84;46.90;56.63;;
72858;Laerm;62742;52.136;4.500;2022-09-30T15:14:54;51.60;46.00;60.23;;
72858;Laerm;62742;52.136;4.500;2022-09-30T15:17:24;51.12;45.97;60.63;;
72858;Laerm;62742;52.136;4.500;2022-09-30T15:19:57;50.75;46.12;61.11;;
72858;Laerm;62742;52.136;4.500;2022-09-30T15:22:27;49.76;45.34;57.35;;
72858;Laerm;62742;52.136;4.500;2022-09-30T15:24:56;50.44;46.09;59.48;;
72858;Laerm;62742;52.136;4.500;2022-09-30T15:27:29;50.40;46.68;58.33;;
72858;Laerm;62742;52.136;4.500;2022-09-30T15:30:03;49.76;46.52;58.64;;
72858;Laerm;62742;52.136;4.500;2022-09-30T15:32:46;49.75;45.98;59.83;;
72858;Laerm;62742;52.136;4.500;2022-09-30T15:35:19;48.71;44.58;53.71;;
72858;Laerm;62742;52.136;4.500;2022-09-30T15:37:47;48.26;44.80;53.79;;
72858;Laerm;62742;52.136;4.500;2022-09-30T15:40:19;48.20;43.71;53.84;;
72858;Laerm;62742;52.136;4.500;2022-09-30T15:43:08;47.88;43.51;57.60;;
72858;Laerm;62742;52.136;4.500;2022-09-30T15:45:42;50.23;46.42;58.00;;
72858;Laerm;62742;52.136;4.500;2022-09-30T15:50:48;50.36;47.38;52.79;;
72858;Laerm;62742;52.136;4.500;2022-09-30T15:53:21;50.30;44.95;59.63;;
72858;Laerm;62742;52.136;4.500;2022-09-30T15:58:58;51.26;43.31;58.12;;
72858;Laerm;62742;52.136;4.500;2022-09-30T16:06:52;50.11;45.18;54.27;;
72858;Laerm;62742;52.136;4.500;2022-09-30T16:09:36;50.71;45.30;59.58;;
72858;Laerm;62742;52.136;4.500;2022-09-30T16:12:18;51.42;44.44;58.24;;
72858;Laerm;62742;52.136;4.500;2022-09-30T16:14:49;53.66;50.26;55.70;;
72858;Laerm;62742;52.136;4.500;2022-09-30T16:17:27;52.50;49.26;55.27;;
72858;Laerm;62742;52.136;4.500;2022-09-30T16:20:21;53.47;50.74;55.86;;
72858;Laerm;62742;52.136;4.500;2022-09-30T16:22:52;53.30;49.88;56.35;;
72858;Laerm;62742;52.136;4.500;2022-09-30T16:25:27;52.97;50.33;55.27;;
72858;Laerm;62742;52.136;4.500;2022-09-30T16:28:10;52.78;48.00;55.89;;
72858;Laerm;62742;52.136;4.500;2022-09-30T16:30:45;53.52;49.26;55.81;;
72858;Laerm;62742;52.136;4.500;2022-09-30T16:33:14;51.44;48.68;55.59;;
72858;Laerm;62742;52.136;4.500;2022-09-30T16:35:43;50.82;44.50;58.29;;
72858;Laerm;62742;52.136;4.500;2022-09-30T16:38:16;49.75;43.77;54.21;;
72858;Laerm;62742;52.136;4.500;2022-09-30T16:40:43;50.23;44.49;54.72;;
72858;Laerm;62742;52.136;4.500;2022-09-30T16:43:09;49.90;44.36;54.67;;
72858;Laerm;62742;52.136;4.500;2022-09-30T16:45:37;49.58;44.13;53.90;;
72858;Laerm;62742;52.136;4.500;2022-09-30T16:48:14;49.20;44.09;54.18;;
72858;Laerm;62742;52.136;4.500;2022-09-30T16:51:13;49.18;44.06;54.13;;
72858;Laerm;62742;52.136;4.500;2022-09-30T16:53:40;50.62;45.28;55.18;;
72858;Laerm;62742;52.136;4.500;2022-09-30T16:56:15;49.69;43.39;54.36;;
72858;Laerm;62742;52.136;4.500;2022-09-30T16:58:42;49.60;43.69;54.40;;
72858;Laerm;62742;52.136;4.500;2022-09-30T17:01:24;50.05;45.04;54.36;;
72858;Laerm;62742;52.136;4.500;2022-09-30T17:03:56;49.36;43.65;54.51;;
72858;Laerm;62742;52.136;4.500;2022-09-30T17:06:31;52.42;45.07;56.81;;
72858;Laerm;62742;52.136;4.500;2022-09-30T17:08:58;52.00;45.19;57.54;;
72858;Laerm;62742;52.136;4.500;2022-09-30T17:11:31;49.08;43.80;53.46;;
72858;Laerm;62742;52.136;4.500;2022-09-30T17:14:03;52.20;44.81;56.28;;
72858;Laerm;62742;52.136;4.500;2022-09-30T17:16:29;51.26;45.29;57.97;;
72858;Laerm;62742;52.136;4.500;2022-09-30T17:18:56;49.76;44.24;54.27;;
72858;Laerm;62742;52.136;4.500;2022-09-30T17:21:25;49.63;44.55;54.07;;
72858;Laerm;62742;52.136;4.500;2022-09-30T17:23:54;49.59;44.41;53.80;;
72858;Laerm;62742;52.136;4.500;2022-09-30T17:26:21;48.91;42.87;54.49;;
72858;Laerm;62742;52.136;4.500;2022-09-30T17:28:47;49.64;45.34;53.53;;
72858;Laerm;62742;52.136;4.500;2022-09-30T17:31:14;52.31;44.88;56.99;;
72858;Laerm;62742;52.136;4.500;2022-09-30T17:33:41;53.00;50.02;55.97;;
72858;Laerm;62742;52.136;4.500;2022-09-30T17:36:11;52.57;49.66;55.86;;
72858;Laerm;62742;52.136;4.500;2022-09-30T17:38:39;52.37;49.75;54.95;;
72858;Laerm;62742;52.136;4.500;2022-09-30T17:41:08;52.51;49.04;55.94;;
72858;Laerm;62742;52.136;4.500;2022-09-30T17:43:54;49.89;44.01;58.33;;
72858;Laerm;62742;52.136;4.500;2022-09-30T17:46:21;48.55;42.81;53.12;;
72858;Laerm;62742;52.136;4.500;2022-09-30T17:48:49;47.76;42.56;54.23;;